Flight Track Log - Related Links

Times and Time Zones

All times are in EDT time to prevent confusion due to time zone crossing. See the UAL4536 flight status page for this flight to view local times or setup timezone preferences in your user account.

Time Position Orientation Groundspeed Altitude Reporting Facility
EDT Latitude Longitude Course Direction KTS MPH feet Rate Location/Type
Mon 01:59:33 PM 29.9614 -95.3411 90° East 164 189 500  Level Houston Center
Mon 01:59:52 PM 29.9522 -95.3303 134° Southeast 177 204 1,100 1,556 Climbing Houston Center
Mon 02:00:54 PM 29.9353 -95.2622 106° East 240 276 2,600 1,403 Climbing Houston Center
Mon 02:01:09 PM 29.9342 -95.2533 98° East 219 252 2,900 2,164 Climbing Houston Center
Mon 02:01:55 PM 29.9342 -95.1828 90° East 255 293 4,800 2,032 Climbing Houston Center
Mon 02:02:11 PM 29.9350 -95.1733 84° East 255 293 5,000 2,000 Climbing Houston Center
Mon 02:03:00 PM 29.9834 -94.8117 90° East  Level FlightAware Approximate
Mon 02:03:13 PM 29.9417 -95.0919 85° East 255 293 7,400  Level Houston Center
Mon 02:04:00 PM 29.9833 -94.6813 90° East  Level FlightAware Approximate
Mon 02:04:15 PM 29.9517 -94.9872 84° East 271 312 9,400  Level Houston Center
Mon 02:05:17 PM 29.9600 -94.8900 84° East 298 343 10,600 968 Climbing Houston Center
Mon 02:06:19 PM 29.9700 -94.7794 84° East 342 394 11,400 1,016 Climbing Houston Center
Mon 02:07:21 PM 29.9797 -94.6636 84° East 359 413 12,700 1,306 Climbing Houston Center
Mon 02:08:23 PM 29.9883 -94.5469 85° East 365 420 14,100 1,258 Climbing Houston Center
Mon 02:09:25 PM 29.9925 -94.4281 88° East 365 420 15,300 1,065 Climbing Houston Center
Mon 02:10:27 PM 29.9972 -94.3067 87° East 377 434 16,300 1,113 Climbing Houston Center
Mon 02:11:29 PM 30.0147 -94.1597 82° East 390 449 17,600 1,113 Climbing Houston Center
Mon 02:12:31 PM 30.0297 -94.0369 82° East 389 448 18,600 1,016 Climbing Houston Center
Mon 02:13:33 PM 30.0450 -93.9114 82° East 394 453 19,700 1,016 Climbing Houston Center
Mon 02:14:35 PM 30.0608 -93.7847 82° East 399 459 20,700 968 Climbing Houston Center
Mon 02:15:37 PM 30.0761 -93.6569 82° East 404 465 21,700 1,113 Climbing Houston Center
Mon 02:16:39 PM 30.0939 -93.5033 82° East 408 470 23,000 1,113 Climbing Houston Center
Mon 02:17:41 PM 30.1089 -93.3736 82° East 411 473 24,000 968 Climbing Houston Center
Mon 02:18:43 PM 30.1244 -93.2431 82° East 414 476 25,000 1,016 Climbing Houston Center
Mon 02:19:45 PM 30.1394 -93.1111 82° East 417 480 26,100 1,113 Climbing Houston Center
Mon 02:20:47 PM 30.1697 -92.9581 77° East 411 473 27,300 1,065 Climbing Houston Center
Mon 02:21:49 PM 30.1942 -92.8319 77° East 406 467 28,300 1,016 Climbing Houston Center
Mon 02:22:51 PM 30.2197 -92.7064 77° East 404 465 29,400 1,016 Climbing Houston Center
Mon 02:23:53 PM 30.2431 -92.5794 78° East 405 466 30,400 968 Climbing Houston Center
Mon 02:24:55 PM 30.2672 -92.4542 77° East 401 461 31,400 1,056 Climbing Houston Center
Mon 02:25:58 PM 30.2950 -92.3083 78° East 406 467 32,600 1,104 Climbing Houston Center
Mon 02:27:00 PM 30.3197 -92.1819 77° East 405 466 33,700 1,016 Climbing Houston Center
Mon 02:28:02 PM 30.3433 -92.0569 78° East 401 461 34,700 629 Climbing Houston Center
Mon 02:29:04 PM 30.3678 -91.9314 77° East 401 461 35,000 145 Climbing Houston Center
Mon 02:30:06 PM 30.3967 -91.7717 78° East 422 486 35,000  Level Houston Center
Mon 02:31:08 PM 30.4219 -91.6433 77° East 444 511 35,000  Level Houston Center
Mon 02:32:10 PM 30.4486 -91.4978 78° East 461 531 35,000 -48 Level Houston Center
Mon 02:33:12 PM 30.4758 -91.3472 78° East 476 548 34,900  Descending Houston Center
Mon 02:34:14 PM 30.5431 -91.1756 66° East 490 564 35,000 48 Climbing Houston Center
Mon 02:35:16 PM 30.6081 -91.0386 61° Northeast 486 559 35,000 -48 Level Houston Center
Mon 02:36:19 PM 30.6731 -90.9019 61° Northeast 485 558 34,900  Descending Houston Center
Mon 02:37:21 PM 30.7425 -90.7700 58° Northeast 478 550 35,000 48 Climbing Houston Center
Mon 02:38:23 PM 30.8378 -90.6589 45° Northeast 483 556 35,000 -48 Level Houston Center
Mon 02:39:25 PM 30.9297 -90.5489 46° Northeast 475 547 34,900  Descending Houston Center
Mon 02:40:27 PM 31.0414 -90.4172 45° Northeast 474 545 35,000  Climbing Houston Center
Mon 02:41:29 PM 31.1353 -90.3069 45° Northeast 478 550 34,900  Descending Houston Center
Mon 02:42:31 PM 31.2283 -90.1969 45° Northeast 475 547 35,000 48 Climbing Houston Center
Mon 02:43:34 PM 31.3233 -90.0856 45° Northeast 475 547 35,000  Level Houston Center
Mon 02:44:36 PM 31.4133 -89.9758 46° Northeast 473 544 35,000  Level Houston Center
Mon 02:45:38 PM 31.5061 -89.8658 45° Northeast 473 544 35,000 -48 Level Houston Center
Mon 02:46:40 PM 31.5981 -89.7544 46° Northeast 474 545 34,900  Descending Houston Center
Mon 02:47:09 PM 31.6514 -89.6886 46° Northeast 475 547 35,000 97 Climbing Memphis Center
Mon 02:47:42 PM 31.7092 -89.6225 44° Northeast 473 544 35,000  Level Houston Center
Mon 02:48:44 PM 31.7925 -89.5206 46° Northeast 475 547 35,000  Level Houston Center
Mon 02:49:46 PM 31.8822 -89.4117 46° Northeast 467 537 35,000  Level Houston Center
Mon 02:50:09 PM 31.9350 -89.3464 46° Northeast 469 540 35,000  Level Memphis Center
Mon 02:51:09 PM 32.0258 -89.2375 45° Northeast 463 533 35,000  Level Memphis Center
Mon 02:52:09 PM 32.1147 -89.1286 46° Northeast 458 527 35,000  Level Memphis Center
Mon 02:53:09 PM 32.2053 -89.0192 46° Northeast 458 527 35,000  Level Memphis Center
Mon 02:54:09 PM 32.2961 -88.9072 46° Northeast 458 527 35,000  Level Memphis Center
Mon 02:55:09 PM 32.3822 -88.7953 48° Northeast 458 527 35,000  Level Memphis Center
Mon 02:56:09 PM 32.4453 -88.6661 60° Northeast 458 527 35,000  Level Memphis Center
Mon 02:57:09 PM 32.5081 -88.5294 61° Northeast 463 533 35,000  Level Memphis Center
Mon 02:58:09 PM 32.5728 -88.3925 61° Northeast 468 539 35,000  Level Memphis Center
Mon 03:00:07 PM 32.6883 -88.1456 61° Northeast 474 545 35,000  Level Atlanta Center
Mon 03:01:07 PM 32.7450 -88.0125 63° Northeast 479 551 35,000  Level Atlanta Center
Mon 03:02:07 PM 32.8122 -87.8672 61° Northeast 474 545 35,000  Level Atlanta Center
Mon 03:03:07 PM 32.8769 -87.7314 60° Northeast 469 540 35,000  Level Atlanta Center
Mon 03:04:07 PM 32.9353 -87.5931 63° Northeast 469 540 35,000  Level Atlanta Center
Mon 03:05:07 PM 32.9750 -87.4411 73° East 464 534 35,000  Level Atlanta Center
Mon 03:06:07 PM 33.0103 -87.2914 74° East 464 534 35,000  Level Atlanta Center
Mon 03:07:07 PM 33.0439 -87.1264 76° East 470 541 35,000  Level Atlanta Center
Mon 03:08:07 PM 33.0742 -86.9961 74° East 463 533 35,000  Level Atlanta Center
Mon 03:09:07 PM 33.1089 -86.8486 74° East 458 527 35,000  Level Atlanta Center
Mon 03:10:07 PM 33.1436 -86.6958 75° East 464 534 35,000  Level Atlanta Center
Mon 03:11:07 PM 33.1825 -86.5308 74° East 464 534 35,000  Level Atlanta Center
Mon 03:12:07 PM 33.2103 -86.3925 76° East 469 540 35,000  Level Atlanta Center
Mon 03:13:07 PM 33.2444 -86.2444 75° East 464 534 35,000  Level Atlanta Center
Mon 03:14:07 PM 33.2783 -86.0961 75° East 464 534 35,000  Level Atlanta Center
Mon 03:15:07 PM 33.3100 -85.9453 76° East 469 540 35,000  Level Atlanta Center
Mon 03:16:07 PM 33.3458 -85.7769 76° East 469 540 35,000  Level Atlanta Center
Mon 03:17:07 PM 33.3747 -85.6508 75° East 455 524 35,000  Level Atlanta Center
Mon 03:18:07 PM 33.4078 -85.4972 76° East 455 524 35,000  Level Atlanta Center
Mon 03:19:07 PM 33.4408 -85.3458 75° East 461 531 35,000  Level Atlanta Center
Mon 03:20:07 PM 33.4739 -85.1794 77° East 470 541 35,000  Level Atlanta Center
Mon 03:21:07 PM 33.5064 -85.0228 76° East 470 541 35,000  Level Atlanta Center
Mon 03:22:07 PM 33.5367 -84.8711 76° East 470 541 35,000  Level Atlanta Center
Mon 03:23:07 PM 33.5711 -84.7169 75° East 470 541 35,000  Level Atlanta Center
Mon 03:24:07 PM 33.6033 -84.5600 76° East 470 541 35,000  Level Atlanta Center
Mon 03:25:07 PM 33.6289 -84.4256 77° East 470 541 35,000  Level Atlanta Center
Mon 03:26:07 PM 33.6708 -84.2733 72° East 470 541 35,000  Level Atlanta Center
Mon 03:27:07 PM 33.7211 -84.1036 70° East 480 552 35,000  Level Atlanta Center
Mon 03:28:07 PM 33.7650 -83.9539 71° East 485 558 35,000  Level Atlanta Center
Mon 03:29:07 PM 33.8067 -83.8014 72° East 485 558 35,000 -50 Level Atlanta Center
Mon 03:30:07 PM 33.8500 -83.6486 71° East 485 558 34,900 -500 Descending Atlanta Center
Mon 03:31:07 PM 33.8892 -83.4983 73° East 480 552 34,000 -1,150 Descending Atlanta Center
Mon 03:32:07 PM 33.9322 -83.3453 71° East 480 552 32,600 -1,300 Descending Atlanta Center
Mon 03:33:07 PM 33.9772 -83.1922 70° East 485 558 31,400 -1,250 Descending Atlanta Center
Mon 03:34:07 PM 34.0197 -83.0339 72° East 485 558 30,100 -1,400 Descending Atlanta Center
Mon 03:35:07 PM 34.0622 -82.8728 72° East 490 564 28,600 -1,550 Descending Atlanta Center
Mon 03:36:07 PM 34.1064 -82.7142 71° East 495 570 27,000 -1,400 Descending Atlanta Center
Mon 03:37:07 PM 34.1486 -82.5728 70° East 495 570 25,800 -1,250 Descending Atlanta Center
Mon 03:38:07 PM 34.2200 -82.4411 57° Northeast 480 552 24,500 -900 Descending Atlanta Center
Mon 03:39:07 PM 34.2975 -82.3039 56° Northeast 480 552 24,000 -600 Descending Atlanta Center
Mon 03:40:07 PM 34.3769 -82.1714 54° Northeast 485 558 23,300 -1,000 Descending Atlanta Center
Mon 03:41:07 PM 34.4500 -82.0411 56° Northeast 480 552 22,000 -1,850 Descending Atlanta Center
Mon 03:42:07 PM 34.5189 -81.9186 56° Northeast 464 534 19,600 -2,500 Descending Atlanta Center
Mon 03:43:07 PM 34.5878 -81.8033 54° Northeast 439 505 17,000 -2,900 Descending Atlanta Center
Mon 03:44:07 PM 34.6586 -81.6778 56° Northeast 414 476 13,800 -2,660 Descending Atlanta Center
Mon 03:44:53 PM 34.7089 -81.5903 55° Northeast 399 459 12,300 -1,317 Descending Atlanta Center
Mon 03:45:29 PM 34.7392 -81.5389 54° Northeast 352 405 12,000 -243 Descending Atlanta Center
Mon 03:46:07 PM 34.7800 -81.4897 45° Northeast 340 391 12,000  Level Atlanta Center
Mon 03:46:30 PM 34.8022 -81.4536 53° Northeast 298 343 12,000 -400 Level Atlanta Center
Mon 03:47:07 PM 34.8328 -81.4197 42° Northeast 313 360 11,600 -1,475 Descending Atlanta Center
Mon 03:47:31 PM 34.8611 -81.3783 50° Northeast 306 352 10,500 -2,000 Descending Atlanta Center
Mon 03:48:07 PM 34.8894 -81.3444 44° Northeast 307 353 9,600 -1,343 Descending Atlanta Center
Mon 03:48:38 PM 34.9219 -81.3003 48° Northeast 302 348 9,000 -600 Descending Atlanta Center
Mon 03:49:07 PM 34.9464 -81.2717 44° Northeast 301 346 9,000  Level Atlanta Center
Mon 03:49:39 PM 34.9808 -81.2250 48° Northeast 299 344 9,000  Level Atlanta Center
Mon 03:50:07 PM 35.0053 -81.1961 44° Northeast 301 346 9,000  Level Atlanta Center
Mon 03:50:39 PM 35.0436 -81.1442 48° Northeast 304 350 9,000  Level Atlanta Center
Mon 03:51:07 PM 35.0619 -81.1206 47° Northeast 301 346 9,000  Level Atlanta Center
Mon 03:51:40 PM 35.1044 -81.0761 41° Northeast 302 348 9,000  Level Atlanta Center
Mon 03:52:07 PM 35.1314 -81.0675 15° North 301 346 9,000 -787 Level Atlanta Center
Mon 03:52:41 PM 35.1836 -81.0681 360° North 284 327 8,200 -1,400 Descending Atlanta Center
Mon 03:53:07 PM 35.2089 -81.0722 352° North 265 305 7,600 -1,770 Descending Atlanta Center
Mon 03:53:42 PM 35.2631 -81.0728 360° North 275 316 6,400 -1,642 Descending Atlanta Center
Mon 03:54:42 PM 35.3361 -81.0778 357° North 257 296 5,000 -1,370 Descending Atlanta Center
Mon 03:55:49 PM 35.3572 -81.0033 71° East 247 284 3,500 -1,172 Descending Atlanta Center
Mon 03:56:50 PM 35.3061 -80.9619 147° Southeast 207 238 2,500 -984 Descending Atlanta Center
Mon 03:57:51 PM 35.2622 -80.9583 176° South 139 160 1,500 -984 Descending Atlanta Center
Mon 03:59:00 PM 35.2137 -80.9491 158° South  Level Estimated
Mon 04:06:00 PM 35.2137 -80.9491 158° South  Level Estimated
Mon 04:07:00 PM 35.2137 -80.9491 158° South  Level Estimated

Login

Don't have an account? Register now (free) for customized features, flight alerts, and more!